This is the latest recevied weather packets stored in our database for station/object DK2OO-6. If no packets are shown the sender has not sent any weather packets the latest 10 day(s).
| Time | Temp. | Humidity | Pressure | Rain* | Wind** | Luminosity | Snow |
|---|---|---|---|---|---|---|---|
| 1777521139 | 3.89° C | 44% | 1019.7 hPa | 0 mm | - | - | - |
| 1777520539 | 3.89° C | 44% | 1019.8 hPa | 0 mm | - | - | - |
| 1777516921 | 4.44° C | 43% | 1019.6 hPa | 0 mm | - | - | - |
| 1777516321 | 5° C | 43% | 1019.7 hPa | 0 mm | - | - | - |
| 1777515718 | 5° C | 43% | 1019.6 hPa | 0 mm | - | - | - |
| 1777515111 | 5° C | 43% | 1019.5 hPa | 0 mm | - | - | - |
| 1777514505 | 5° C | 43% | 1019.8 hPa | 0 mm | - | - | - |
| 1777513899 | 5° C | 43% | 1019.7 hPa | 0 mm | - | - | - |
| 1777510271 | 6.11° C | 42% | 1019.4 hPa | 0 mm | - | - | - |
| 1777505444 | 6.67° C | 39% | 1019.2 hPa | 0 mm | - | - | - |
| 1777503629 | 7.78° C | 38% | 1018.8 hPa | 0 mm | - | - | - |
| 1777502417 | 7.78° C | 37% | 1018.6 hPa | 0 mm | - | - | - |
| 1777496389 | 10° C | 36% | 1017.8 hPa | 0 mm | - | - | - |
| 1777493981 | 10.56° C | 36% | 1017.4 hPa | 0 mm | - | - | - |
| 1777491560 | 11.11° C | 35% | 1016.8 hPa | 0 mm | - | - | - |
| 1777490346 | 11.67° C | 34% | 1016.7 hPa | 0 mm | - | - | - |
| 1777488530 | 12.78° C | 33% | 1016.4 hPa | 0 mm | - | - | - |
| 1777485506 | 13.89° C | 31% | 1015.6 hPa | 0 mm | - | - | - |
| 1777483691 | 15° C | 29% | 1015.3 hPa | 0 mm | - | - | - |
| 1777477644 | 16.67° C | 30% | 1015 hPa | 0 mm | - | - | - |
| 1777477039 | 16.67° C | 30% | 1014.9 hPa | 0 mm | - | - | - |
| 1777474016 | 17.22° C | 32% | 1014.7 hPa | 0 mm | - | - | - |
| 1777469779 | 17.78° C | - | - | 0 mm | - | - | - |
| 1777465538 | 18.33° C | - | - | 0 mm | - | - | - |
| 1777464323 | 18.89° C | - | - | 0 mm | - | - | - |
* Rain latest hour (hover to see other rain measurements)
** Current wind speed in m/s (hover to see current wind gust speed)